sensor_id;sensor_type;location;lat;lon;timestamp;temperature;humidity
65048;DHT22;52089;51.362;-2.384;2022-09-27T00:00:40;10.80;99.90
65048;DHT22;52089;51.362;-2.384;2022-09-27T00:04:26;10.80;99.40
65048;DHT22;52089;51.362;-2.384;2022-09-27T00:08:08;10.90;99.60
65048;DHT22;52089;51.362;-2.384;2022-09-27T00:11:49;10.90;99.70
65048;DHT22;52089;51.362;-2.384;2022-09-27T00:15:31;10.90;99.90
65048;DHT22;52089;51.362;-2.384;2022-09-27T00:19:18;10.90;99.90
65048;DHT22;52089;51.362;-2.384;2022-09-27T00:23:00;10.90;99.90
65048;DHT22;52089;51.362;-2.384;2022-09-27T00:26:42;10.90;99.90
65048;DHT22;52089;51.362;-2.384;2022-09-27T00:30:24;10.90;99.90
65048;DHT22;52089;51.362;-2.384;2022-09-27T00:34:06;11.00;99.60
65048;DHT22;52089;51.362;-2.384;2022-09-27T00:37:49;10.90;99.30
65048;DHT22;52089;51.362;-2.384;2022-09-27T00:41:33;10.90;99.40
65048;DHT22;52089;51.362;-2.384;2022-09-27T00:45:15;10.90;99.90
65048;DHT22;52089;51.362;-2.384;2022-09-27T00:49:24;10.80;99.90
65048;DHT22;52089;51.362;-2.384;2022-09-27T00:56:53;10.90;99.90
65048;DHT22;52089;51.362;-2.384;2022-09-27T01:00:37;10.80;99.30
65048;DHT22;52089;51.362;-2.384;2022-09-27T01:04:21;10.70;99.30
65048;DHT22;52089;51.362;-2.384;2022-09-27T01:08:05;10.70;98.80
65048;DHT22;52089;51.362;-2.384;2022-09-27T01:16:03;10.60;99.90
65048;DHT22;52089;51.362;-2.384;2022-09-27T01:24:01;10.70;99.90
65048;DHT22;52089;51.362;-2.384;2022-09-27T01:31:48;10.70;99.90
65048;DHT22;52089;51.362;-2.384;2022-09-27T01:36:10;10.70;99.90
65048;DHT22;52089;51.362;-2.384;2022-09-27T01:40:11;10.70;99.90
65048;DHT22;52089;51.362;-2.384;2022-09-27T01:44:25;10.80;99.90
65048;DHT22;52089;51.362;-2.384;2022-09-27T01:48:23;10.70;99.90
65048;DHT22;52089;51.362;-2.384;2022-09-27T01:52:08;10.70;99.90
65048;DHT22;52089;51.362;-2.384;2022-09-27T01:55:53;10.60;99.60
65048;DHT22;52089;51.362;-2.384;2022-09-27T01:59:44;10.60;99.90
65048;DHT22;52089;51.362;-2.384;2022-09-27T02:03:35;10.60;99.90
65048;DHT22;52089;51.362;-2.384;2022-09-27T02:07:32;10.60;99.90
65048;DHT22;52089;51.362;-2.384;2022-09-27T02:11:16;10.60;99.90
65048;DHT22;52089;51.362;-2.384;2022-09-27T02:15:05;10.60;99.60
65048;DHT22;52089;51.362;-2.384;2022-09-27T02:27:21;10.70;99.90
65048;DHT22;52089;51.362;-2.384;2022-09-27T02:31:04;10.70;99.90
65048;DHT22;52089;51.362;-2.384;2022-09-27T02:34:47;10.80;99.70
65048;DHT22;52089;51.362;-2.384;2022-09-27T02:38:29;10.90;99.80
65048;DHT22;52089;51.362;-2.384;2022-09-27T02:42:11;10.80;99.50
65048;DHT22;52089;51.362;-2.384;2022-09-27T02:46:03;10.80;99.70
65048;DHT22;52089;51.362;-2.384;2022-09-27T03:02:14;10.70;99.90
65048;DHT22;52089;51.362;-2.384;2022-09-27T03:06:06;10.60;99.90
65048;DHT22;52089;51.362;-2.384;2022-09-27T03:09:51;10.60;99.80
65048;DHT22;52089;51.362;-2.384;2022-09-27T03:13:33;10.60;99.90
65048;DHT22;52089;51.362;-2.384;2022-09-27T03:17:37;10.50;99.40
65048;DHT22;52089;51.362;-2.384;2022-09-27T03:21:18;10.50;99.20
65048;DHT22;52089;51.362;-2.384;2022-09-27T03:25:00;10.50;99.30
65048;DHT22;52089;51.362;-2.384;2022-09-27T03:28:42;10.50;99.60
65048;DHT22;52089;51.362;-2.384;2022-09-27T03:32:24;10.50;99.80
65048;DHT22;52089;51.362;-2.384;2022-09-27T03:36:06;10.40;99.90
65048;DHT22;52089;51.362;-2.384;2022-09-27T03:39:48;10.50;99.90
65048;DHT22;52089;51.362;-2.384;2022-09-27T03:43:30;10.40;99.90
65048;DHT22;52089;51.362;-2.384;2022-09-27T03:47:11;10.40;99.90
65048;DHT22;52089;51.362;-2.384;2022-09-27T03:50:53;10.40;99.90
65048;DHT22;52089;51.362;-2.384;2022-09-27T03:54:35;10.40;99.90
65048;DHT22;52089;51.362;-2.384;2022-09-27T03:58:17;10.40;99.90
65048;DHT22;52089;51.362;-2.384;2022-09-27T04:01:58;10.40;99.90
65048;DHT22;52089;51.362;-2.384;2022-09-27T04:05:40;10.30;99.90
65048;DHT22;52089;51.362;-2.384;2022-09-27T04:09:22;10.30;99.90
65048;DHT22;52089;51.362;-2.384;2022-09-27T04:13:04;10.30;99.90
65048;DHT22;52089;51.362;-2.384;2022-09-27T04:16:46;10.20;99.90
65048;DHT22;52089;51.362;-2.384;2022-09-27T04:20:28;10.20;99.90
65048;DHT22;52089;51.362;-2.384;2022-09-27T04:24:10;10.30;99.90
65048;DHT22;52089;51.362;-2.384;2022-09-27T04:27:52;10.40;99.90
65048;DHT22;52089;51.362;-2.384;2022-09-27T04:31:36;10.40;99.90
65048;DHT22;52089;51.362;-2.384;2022-09-27T04:35:18;10.40;99.90
65048;DHT22;52089;51.362;-2.384;2022-09-27T04:39:18;10.50;99.90
65048;DHT22;52089;51.362;-2.384;2022-09-27T04:43:00;10.60;99.90
65048;DHT22;52089;51.362;-2.384;2022-09-27T04:46:42;10.60;99.90
65048;DHT22;52089;51.362;-2.384;2022-09-27T04:50:24;10.60;99.90
65048;DHT22;52089;51.362;-2.384;2022-09-27T04:54:05;10.70;99.90
65048;DHT22;52089;51.362;-2.384;2022-09-27T04:57:48;10.70;99.90
65048;DHT22;52089;51.362;-2.384;2022-09-27T05:01:30;10.70;99.90
65048;DHT22;52089;51.362;-2.384;2022-09-27T05:05:12;10.70;99.90
65048;DHT22;52089;51.362;-2.384;2022-09-27T05:08:53;10.70;99.90
65048;DHT22;52089;51.362;-2.384;2022-09-27T05:12:35;10.80;99.90
65048;DHT22;52089;51.362;-2.384;2022-09-27T05:16:17;10.80;99.90
65048;DHT22;52089;51.362;-2.384;2022-09-27T05:20:01;10.80;99.90
65048;DHT22;52089;51.362;-2.384;2022-09-27T05:23:43;10.80;99.90
65048;DHT22;52089;51.362;-2.384;2022-09-27T05:27:28;10.80;99.90
65048;DHT22;52089;51.362;-2.384;2022-09-27T05:31:12;10.80;99.90
65048;DHT22;52089;51.362;-2.384;2022-09-27T05:34:55;10.80;99.90
65048;DHT22;52089;51.362;-2.384;2022-09-27T05:38:36;10.70;99.90
65048;DHT22;52089;51.362;-2.384;2022-09-27T05:42:18;10.70;99.90
65048;DHT22;52089;51.362;-2.384;2022-09-27T05:46:00;10.70;99.90
65048;DHT22;52089;51.362;-2.384;2022-09-27T05:49:42;10.70;99.90
65048;DHT22;52089;51.362;-2.384;2022-09-27T05:53:23;10.70;99.90
65048;DHT22;52089;51.362;-2.384;2022-09-27T05:57:05;10.70;99.90
65048;DHT22;52089;51.362;-2.384;2022-09-27T06:00:48;10.70;99.90
65048;DHT22;52089;51.362;-2.384;2022-09-27T06:04:30;10.70;99.90
65048;DHT22;52089;51.362;-2.384;2022-09-27T06:08:12;10.70;99.90
65048;DHT22;52089;51.362;-2.384;2022-09-27T06:11:54;10.60;99.90
65048;DHT22;52089;51.362;-2.384;2022-09-27T06:15:37;10.60;99.90
65048;DHT22;52089;51.362;-2.384;2022-09-27T06:19:20;10.50;99.90
65048;DHT22;52089;51.362;-2.384;2022-09-27T06:26:53;10.50;99.90
65048;DHT22;52089;51.362;-2.384;2022-09-27T06:30:41;10.50;99.90
65048;DHT22;52089;51.362;-2.384;2022-09-27T06:34:23;10.50;99.90
65048;DHT22;52089;51.362;-2.384;2022-09-27T06:38:06;10.50;99.90
65048;DHT22;52089;51.362;-2.384;2022-09-27T06:41:52;10.50;99.90
65048;DHT22;52089;51.362;-2.384;2022-09-27T06:45:38;10.50;99.90
65048;DHT22;52089;51.362;-2.384;2022-09-27T06:49:20;10.50;99.90
65048;DHT22;52089;51.362;-2.384;2022-09-27T06:53:07;10.50;99.90
65048;DHT22;52089;51.362;-2.384;2022-09-27T06:56:51;10.60;99.90
65048;DHT22;52089;51.362;-2.384;2022-09-27T07:00:32;10.70;99.90
65048;DHT22;52089;51.362;-2.384;2022-09-27T07:04:14;10.70;99.90
65048;DHT22;52089;51.362;-2.384;2022-09-27T07:07:57;10.60;99.90
65048;DHT22;52089;51.362;-2.384;2022-09-27T07:11:39;10.60;99.90
65048;DHT22;52089;51.362;-2.384;2022-09-27T07:15:24;10.50;99.90
65048;DHT22;52089;51.362;-2.384;2022-09-27T07:19:06;10.50;99.90
65048;DHT22;52089;51.362;-2.384;2022-09-27T07:22:48;10.50;99.90
65048;DHT22;52089;51.362;-2.384;2022-09-27T07:26:30;10.50;99.90
65048;DHT22;52089;51.362;-2.384;2022-09-27T07:30:12;10.50;99.90
65048;DHT22;52089;51.362;-2.384;2022-09-27T07:33:54;10.60;99.90
65048;DHT22;52089;51.362;-2.384;2022-09-27T07:37:36;10.70;99.90
65048;DHT22;52089;51.362;-2.384;2022-09-27T07:41:18;10.80;99.90
65048;DHT22;52089;51.362;-2.384;2022-09-27T07:45:00;10.90;99.90
65048;DHT22;52089;51.362;-2.384;2022-09-27T07:48:45;11.10;99.90
65048;DHT22;52089;51.362;-2.384;2022-09-27T07:52:28;11.20;99.90
65048;DHT22;52089;51.362;-2.384;2022-09-27T07:56:10;11.40;99.90
65048;DHT22;52089;51.362;-2.384;2022-09-27T07:59:52;11.60;99.90
65048;DHT22;52089;51.362;-2.384;2022-09-27T08:03:34;11.80;99.90
65048;DHT22;52089;51.362;-2.384;2022-09-27T08:07:16;12.00;99.90
65048;DHT22;52089;51.362;-2.384;2022-09-27T08:10:58;12.10;99.90
65048;DHT22;52089;51.362;-2.384;2022-09-27T08:14:40;12.30;99.90
65048;DHT22;52089;51.362;-2.384;2022-09-27T08:18:28;12.50;99.90
65048;DHT22;52089;51.362;-2.384;2022-09-27T08:22:11;12.70;99.90
65048;DHT22;52089;51.362;-2.384;2022-09-27T08:25:56;12.70;99.90
65048;DHT22;52089;51.362;-2.384;2022-09-27T08:29:39;13.00;99.90
65048;DHT22;52089;51.362;-2.384;2022-09-27T08:33:22;13.40;99.90
65048;DHT22;52089;51.362;-2.384;2022-09-27T08:37:12;13.70;99.90
65048;DHT22;52089;51.362;-2.384;2022-09-27T08:41:02;14.00;99.90
65048;DHT22;52089;51.362;-2.384;2022-09-27T08:48:48;15.00;99.90
65048;DHT22;52089;51.362;-2.384;2022-09-27T08:52:41;15.50;99.90
65048;DHT22;52089;51.362;-2.384;2022-09-27T08:56:25;16.10;99.90
65048;DHT22;52089;51.362;-2.384;2022-09-27T09:00:10;16.50;99.90
65048;DHT22;52089;51.362;-2.384;2022-09-27T09:03:55;16.80;99.90
65048;DHT22;52089;51.362;-2.384;2022-09-27T09:19:47;18.20;99.90
65048;DHT22;52089;51.362;-2.384;2022-09-27T09:23:46;18.60;90.40
65048;DHT22;52089;51.362;-2.384;2022-09-27T09:35:42;18.70;83.50
65048;DHT22;52089;51.362;-2.384;2022-09-27T09:39:43;18.90;95.30
65048;DHT22;52089;51.362;-2.384;2022-09-27T09:43:31;19.40;78.60
65048;DHT22;52089;51.362;-2.384;2022-09-27T09:47:25;20.00;84.90
65048;DHT22;52089;51.362;-2.384;2022-09-27T09:51:14;20.10;80.80
65048;DHT22;52089;51.362;-2.384;2022-09-27T09:55:12;20.40;84.00
65048;DHT22;52089;51.362;-2.384;2022-09-27T09:59:01;20.70;72.20
65048;DHT22;52089;51.362;-2.384;2022-09-27T10:02:45;20.90;76.20
65048;DHT22;52089;51.362;-2.384;2022-09-27T10:06:28;20.80;72.60
65048;DHT22;52089;51.362;-2.384;2022-09-27T10:10:14;20.60;72.10
65048;DHT22;52089;51.362;-2.384;2022-09-27T10:13:56;20.60;70.00
65048;DHT22;52089;51.362;-2.384;2022-09-27T10:17:41;20.70;72.00
65048;DHT22;52089;51.362;-2.384;2022-09-27T10:21:27;20.70;64.60
65048;DHT22;52089;51.362;-2.384;2022-09-27T10:25:10;20.30;64.10
65048;DHT22;52089;51.362;-2.384;2022-09-27T10:28:52;19.80;63.30
65048;DHT22;52089;51.362;-2.384;2022-09-27T10:32:35;19.20;63.70
65048;DHT22;52089;51.362;-2.384;2022-09-27T10:36:26;18.60;63.50
65048;DHT22;52089;51.362;-2.384;2022-09-27T10:40:30;18.10;64.20
65048;DHT22;52089;51.362;-2.384;2022-09-27T10:44:31;17.60;64.10
65048;DHT22;52089;51.362;-2.384;2022-09-27T10:48:19;17.10;65.70
65048;DHT22;52089;51.362;-2.384;2022-09-27T10:52:21;16.60;66.40
65048;DHT22;52089;51.362;-2.384;2022-09-27T10:56:05;16.20;69.30
65048;DHT22;52089;51.362;-2.384;2022-09-27T10:59:53;16.20;70.60
65048;DHT22;52089;51.362;-2.384;2022-09-27T11:03:38;16.30;70.50
65048;DHT22;52089;51.362;-2.384;2022-09-27T11:07:25;16.30;69.70
65048;DHT22;52089;51.362;-2.384;2022-09-27T11:14:57;15.90;69.50
65048;DHT22;52089;51.362;-2.384;2022-09-27T11:19:13;15.70;69.70
65048;DHT22;52089;51.362;-2.384;2022-09-27T11:46:31;16.20;73.40
65048;DHT22;52089;51.362;-2.384;2022-09-27T11:58:57;16.70;71.70
65048;DHT22;52089;51.362;-2.384;2022-09-27T12:02:48;16.70;71.90
65048;DHT22;52089;51.362;-2.384;2022-09-27T12:06:58;16.90;73.30
65048;DHT22;52089;51.362;-2.384;2022-09-27T12:10:48;17.20;71.00
65048;DHT22;52089;51.362;-2.384;2022-09-27T12:14:44;17.40;69.70
65048;DHT22;52089;51.362;-2.384;2022-09-27T12:18:38;17.50;66.90
65048;DHT22;52089;51.362;-2.384;2022-09-27T12:22:33;17.40;65.80
65048;DHT22;52089;51.362;-2.384;2022-09-27T12:26:42;17.20;67.00
65048;DHT22;52089;51.362;-2.384;2022-09-27T12:30:24;17.10;68.10
65048;DHT22;52089;51.362;-2.384;2022-09-27T12:34:20;17.20;69.20
65048;DHT22;52089;51.362;-2.384;2022-09-27T12:38:13;17.30;67.20
65048;DHT22;52089;51.362;-2.384;2022-09-27T12:42:24;17.50;66.40
65048;DHT22;52089;51.362;-2.384;2022-09-27T12:50:20;17.90;67.50
65048;DHT22;52089;51.362;-2.384;2022-09-27T13:10:49;17.90;63.20
65048;DHT22;52089;51.362;-2.384;2022-09-27T13:14:37;17.80;64.00
65048;DHT22;52089;51.362;-2.384;2022-09-27T13:22:37;17.90;66.10
65048;DHT22;52089;51.362;-2.384;2022-09-27T13:33:59;18.40;65.20
65048;DHT22;52089;51.362;-2.384;2022-09-27T13:37:46;18.40;64.90
65048;DHT22;52089;51.362;-2.384;2022-09-27T13:45:51;18.30;63.30
65048;DHT22;52089;51.362;-2.384;2022-09-27T13:49:38;18.10;63.20
65048;DHT22;52089;51.362;-2.384;2022-09-27T13:53:29;17.80;63.50
65048;DHT22;52089;51.362;-2.384;2022-09-27T14:05:17;17.00;64.50
65048;DHT22;52089;51.362;-2.384;2022-09-27T14:09:04;16.60;66.40
65048;DHT22;52089;51.362;-2.384;2022-09-27T14:12:47;16.40;67.10
65048;DHT22;52089;51.362;-2.384;2022-09-27T14:16:32;16.20;67.50
65048;DHT22;52089;51.362;-2.384;2022-09-27T14:20:38;16.20;69.70
65048;DHT22;52089;51.362;-2.384;2022-09-27T14:28:18;16.50;68.70
65048;DHT22;52089;51.362;-2.384;2022-09-27T14:32:05;16.40;68.50
65048;DHT22;52089;51.362;-2.384;2022-09-27T14:35:49;16.40;69.30
65048;DHT22;52089;51.362;-2.384;2022-09-27T14:40:16;16.50;69.80
65048;DHT22;52089;51.362;-2.384;2022-09-27T14:44:00;16.50;67.60
65048;DHT22;52089;51.362;-2.384;2022-09-27T14:47:47;16.60;68.30
65048;DHT22;52089;51.362;-2.384;2022-09-27T14:51:30;16.70;66.90
65048;DHT22;52089;51.362;-2.384;2022-09-27T14:55:17;16.60;67.60
65048;DHT22;52089;51.362;-2.384;2022-09-27T14:59:06;16.60;67.00
65048;DHT22;52089;51.362;-2.384;2022-09-27T15:02:54;16.60;66.80
65048;DHT22;52089;51.362;-2.384;2022-09-27T15:06:37;16.50;67.10
65048;DHT22;52089;51.362;-2.384;2022-09-27T15:10:21;16.40;67.30
65048;DHT22;52089;51.362;-2.384;2022-09-27T15:14:04;16.20;67.70
65048;DHT22;52089;51.362;-2.384;2022-09-27T15:17:46;16.20;68.30
65048;DHT22;52089;51.362;-2.384;2022-09-27T15:21:34;16.30;68.90
65048;DHT22;52089;51.362;-2.384;2022-09-27T15:25:22;16.20;69.30
65048;DHT22;52089;51.362;-2.384;2022-09-27T15:29:06;16.30;69.00
65048;DHT22;52089;51.362;-2.384;2022-09-27T15:32:57;16.20;68.90
65048;DHT22;52089;51.362;-2.384;2022-09-27T15:36:52;16.20;69.00
65048;DHT22;52089;51.362;-2.384;2022-09-27T15:44:38;16.20;70.30
65048;DHT22;52089;51.362;-2.384;2022-09-27T15:48:24;16.20;69.30
65048;DHT22;52089;51.362;-2.384;2022-09-27T15:52:06;16.10;69.10
65048;DHT22;52089;51.362;-2.384;2022-09-27T15:55:50;16.00;69.40
65048;DHT22;52089;51.362;-2.384;2022-09-27T15:59:34;15.90;69.70
65048;DHT22;52089;51.362;-2.384;2022-09-27T16:03:16;15.80;70.30
65048;DHT22;52089;51.362;-2.384;2022-09-27T16:06:59;15.70;70.00
65048;DHT22;52089;51.362;-2.384;2022-09-27T16:10:45;15.70;70.60
65048;DHT22;52089;51.362;-2.384;2022-09-27T16:14:28;15.60;71.30
65048;DHT22;52089;51.362;-2.384;2022-09-27T16:18:10;15.40;70.90
65048;DHT22;52089;51.362;-2.384;2022-09-27T16:21:52;15.30;71.30
65048;DHT22;52089;51.362;-2.384;2022-09-27T16:25:34;15.20;71.40
65048;DHT22;52089;51.362;-2.384;2022-09-27T16:29:15;15.10;71.90
65048;DHT22;52089;51.362;-2.384;2022-09-27T16:32:58;15.00;72.30
65048;DHT22;52089;51.362;-2.384;2022-09-27T16:36:39;14.90;72.50
65048;DHT22;52089;51.362;-2.384;2022-09-27T16:40:21;14.90;72.80
65048;DHT22;52089;51.362;-2.384;2022-09-27T16:44:09;14.80;73.00
65048;DHT22;52089;51.362;-2.384;2022-09-27T16:47:51;14.80;74.00
65048;DHT22;52089;51.362;-2.384;2022-09-27T16:51:33;14.70;73.20
65048;DHT22;52089;51.362;-2.384;2022-09-27T16:55:34;14.70;73.70
65048;DHT22;52089;51.362;-2.384;2022-09-27T16:59:16;14.60;74.00
65048;DHT22;52089;51.362;-2.384;2022-09-27T17:02:59;14.60;73.70
65048;DHT22;52089;51.362;-2.384;2022-09-27T17:06:41;14.50;73.70
65048;DHT22;52089;51.362;-2.384;2022-09-27T17:10:23;14.50;73.90
65048;DHT22;52089;51.362;-2.384;2022-09-27T17:14:05;14.40;73.80
65048;DHT22;52089;51.362;-2.384;2022-09-27T17:17:49;14.40;74.10
65048;DHT22;52089;51.362;-2.384;2022-09-27T17:21:31;14.30;75.20
65048;DHT22;52089;51.362;-2.384;2022-09-27T17:25:18;14.20;74.80
65048;DHT22;52089;51.362;-2.384;2022-09-27T17:29:00;14.10;75.00
65048;DHT22;52089;51.362;-2.384;2022-09-27T17:32:42;13.90;75.40
65048;DHT22;52089;51.362;-2.384;2022-09-27T17:36:26;13.80;75.70
65048;DHT22;52089;51.362;-2.384;2022-09-27T17:40:10;13.80;76.40
65048;DHT22;52089;51.362;-2.384;2022-09-27T17:43:57;13.70;76.40
65048;DHT22;52089;51.362;-2.384;2022-09-27T17:47:39;13.60;78.50
65048;DHT22;52089;51.362;-2.384;2022-09-27T17:51:40;13.50;77.10
65048;DHT22;52089;51.362;-2.384;2022-09-27T17:55:23;13.40;78.00
65048;DHT22;52089;51.362;-2.384;2022-09-27T17:59:06;13.40;78.60
65048;DHT22;52089;51.362;-2.384;2022-09-27T18:02:48;13.30;79.70
65048;DHT22;52089;51.362;-2.384;2022-09-27T18:06:30;13.20;79.80
65048;DHT22;52089;51.362;-2.384;2022-09-27T18:10:12;13.20;80.80
65048;DHT22;52089;51.362;-2.384;2022-09-27T18:13:56;13.10;81.00
65048;DHT22;52089;51.362;-2.384;2022-09-27T18:17:40;13.00;82.00
65048;DHT22;52089;51.362;-2.384;2022-09-27T18:21:23;13.00;81.90
65048;DHT22;52089;51.362;-2.384;2022-09-27T18:25:07;12.90;82.20
65048;DHT22;52089;51.362;-2.384;2022-09-27T18:28:51;12.80;82.70
65048;DHT22;52089;51.362;-2.384;2022-09-27T18:32:33;12.70;84.10
65048;DHT22;52089;51.362;-2.384;2022-09-27T18:36:18;12.60;83.80
65048;DHT22;52089;51.362;-2.384;2022-09-27T18:40:00;12.60;85.40
65048;DHT22;52089;51.362;-2.384;2022-09-27T18:43:43;12.60;85.50
65048;DHT22;52089;51.362;-2.384;2022-09-27T18:47:25;12.60;87.00
65048;DHT22;52089;51.362;-2.384;2022-09-27T18:51:09;12.60;87.10
65048;DHT22;52089;51.362;-2.384;2022-09-27T18:54:52;12.60;89.90
65048;DHT22;52089;51.362;-2.384;2022-09-27T18:58:36;12.60;87.70
65048;DHT22;52089;51.362;-2.384;2022-09-27T19:02:18;12.60;88.40
65048;DHT22;52089;51.362;-2.384;2022-09-27T19:06:14;12.60;88.10
65048;DHT22;52089;51.362;-2.384;2022-09-27T19:09:56;12.60;90.60
65048;DHT22;52089;51.362;-2.384;2022-09-27T19:13:39;12.60;88.60
65048;DHT22;52089;51.362;-2.384;2022-09-27T19:17:31;12.60;88.90
65048;DHT22;52089;51.362;-2.384;2022-09-27T19:21:16;12.60;88.90
65048;DHT22;52089;51.362;-2.384;2022-09-27T19:24:58;12.60;90.10
65048;DHT22;52089;51.362;-2.384;2022-09-27T19:28:41;12.60;88.60
65048;DHT22;52089;51.362;-2.384;2022-09-27T19:32:24;12.70;88.90
65048;DHT22;52089;51.362;-2.384;2022-09-27T19:36:08;12.70;88.30
65048;DHT22;52089;51.362;-2.384;2022-09-27T19:39:50;12.70;88.40
65048;DHT22;52089;51.362;-2.384;2022-09-27T19:43:36;12.70;87.60
65048;DHT22;52089;51.362;-2.384;2022-09-27T19:47:18;12.70;88.00
65048;DHT22;52089;51.362;-2.384;2022-09-27T19:51:00;12.70;87.00
65048;DHT22;52089;51.362;-2.384;2022-09-27T19:54:42;12.60;86.60
65048;DHT22;52089;51.362;-2.384;2022-09-27T19:58:25;12.60;86.00
65048;DHT22;52089;51.362;-2.384;2022-09-27T20:02:07;12.50;86.00
65048;DHT22;52089;51.362;-2.384;2022-09-27T20:05:53;12.50;85.80
65048;DHT22;52089;51.362;-2.384;2022-09-27T20:09:35;12.40;86.20
65048;DHT22;52089;51.362;-2.384;2022-09-27T20:13:17;12.40;86.00
65048;DHT22;52089;51.362;-2.384;2022-09-27T20:16:59;12.40;85.70
65048;DHT22;52089;51.362;-2.384;2022-09-27T20:20:41;12.40;85.60
65048;DHT22;52089;51.362;-2.384;2022-09-27T20:24:23;12.40;85.70
65048;DHT22;52089;51.362;-2.384;2022-09-27T20:28:05;12.40;85.70
65048;DHT22;52089;51.362;-2.384;2022-09-27T20:31:46;12.40;86.00
65048;DHT22;52089;51.362;-2.384;2022-09-27T20:35:52;12.40;84.80
65048;DHT22;52089;51.362;-2.384;2022-09-27T20:39:34;12.40;84.30
65048;DHT22;52089;51.362;-2.384;2022-09-27T20:43:16;12.40;84.00
65048;DHT22;52089;51.362;-2.384;2022-09-27T20:46:57;12.20;83.60
65048;DHT22;52089;51.362;-2.384;2022-09-27T20:50:39;12.30;83.60
65048;DHT22;52089;51.362;-2.384;2022-09-27T20:54:21;12.10;83.20
65048;DHT22;52089;51.362;-2.384;2022-09-27T20:58:03;12.10;83.20
65048;DHT22;52089;51.362;-2.384;2022-09-27T21:01:46;12.00;83.10
65048;DHT22;52089;51.362;-2.384;2022-09-27T21:05:28;11.90;83.00
65048;DHT22;52089;51.362;-2.384;2022-09-27T21:09:11;11.80;82.90
65048;DHT22;52089;51.362;-2.384;2022-09-27T21:12:59;11.60;83.30
65048;DHT22;52089;51.362;-2.384;2022-09-27T21:16:40;11.50;83.20
65048;DHT22;52089;51.362;-2.384;2022-09-27T21:20:22;11.40;83.40
65048;DHT22;52089;51.362;-2.384;2022-09-27T21:24:04;11.30;83.40
65048;DHT22;52089;51.362;-2.384;2022-09-27T21:27:46;11.20;83.40
65048;DHT22;52089;51.362;-2.384;2022-09-27T21:31:33;11.10;83.30
65048;DHT22;52089;51.362;-2.384;2022-09-27T21:35:16;11.00;83.40
65048;DHT22;52089;51.362;-2.384;2022-09-27T21:38:58;10.80;83.20
65048;DHT22;52089;51.362;-2.384;2022-09-27T21:42:40;10.70;83.50
65048;DHT22;52089;51.362;-2.384;2022-09-27T21:46:26;10.50;84.10
65048;DHT22;52089;51.362;-2.384;2022-09-27T21:50:08;10.30;86.80
65048;DHT22;52089;51.362;-2.384;2022-09-27T21:53:52;10.20;85.30
65048;DHT22;52089;51.362;-2.384;2022-09-27T21:57:34;10.10;87.20
65048;DHT22;52089;51.362;-2.384;2022-09-27T22:01:19;10.10;86.80
65048;DHT22;52089;51.362;-2.384;2022-09-27T22:05:02;10.00;88.50
65048;DHT22;52089;51.362;-2.384;2022-09-27T22:08:45;10.00;87.70
65048;DHT22;52089;51.362;-2.384;2022-09-27T22:12:27;9.90;88.60
65048;DHT22;52089;51.362;-2.384;2022-09-27T22:16:11;9.90;88.70
65048;DHT22;52089;51.362;-2.384;2022-09-27T22:19:53;9.80;90.00
65048;DHT22;52089;51.362;-2.384;2022-09-27T22:23:35;9.70;89.20
65048;DHT22;52089;51.362;-2.384;2022-09-27T22:27:17;9.70;90.00
65048;DHT22;52089;51.362;-2.384;2022-09-27T22:31:03;9.60;89.80
65048;DHT22;52089;51.362;-2.384;2022-09-27T22:34:45;9.50;91.50
65048;DHT22;52089;51.362;-2.384;2022-09-27T22:38:27;9.50;90.20
65048;DHT22;52089;51.362;-2.384;2022-09-27T22:42:09;9.40;90.60
65048;DHT22;52089;51.362;-2.384;2022-09-27T22:45:51;9.30;91.00
65048;DHT22;52089;51.362;-2.384;2022-09-27T22:49:32;9.30;91.30
65048;DHT22;52089;51.362;-2.384;2022-09-27T22:53:14;9.20;91.70
65048;DHT22;52089;51.362;-2.384;2022-09-27T22:56:56;9.20;92.40
65048;DHT22;52089;51.362;-2.384;2022-09-27T23:00:38;9.20;93.00
65048;DHT22;52089;51.362;-2.384;2022-09-27T23:04:20;9.30;93.40
65048;DHT22;52089;51.362;-2.384;2022-09-27T23:08:01;9.30;93.80
65048;DHT22;52089;51.362;-2.384;2022-09-27T23:11:43;9.40;93.40
65048;DHT22;52089;51.362;-2.384;2022-09-27T23:15:25;9.40;93.10
65048;DHT22;52089;51.362;-2.384;2022-09-27T23:19:07;9.40;93.10
65048;DHT22;52089;51.362;-2.384;2022-09-27T23:22:50;9.40;93.20
65048;DHT22;52089;51.362;-2.384;2022-09-27T23:26:33;9.40;93.10
65048;DHT22;52089;51.362;-2.384;2022-09-27T23:30:18;9.40;93.20
65048;DHT22;52089;51.362;-2.384;2022-09-27T23:34:02;9.30;93.80
65048;DHT22;52089;51.362;-2.384;2022-09-27T23:37:44;9.30;94.00
65048;DHT22;52089;51.362;-2.384;2022-09-27T23:41:26;9.30;93.40
65048;DHT22;52089;51.362;-2.384;2022-09-27T23:45:08;9.20;93.40
65048;DHT22;52089;51.362;-2.384;2022-09-27T23:48:51;9.10;93.60
65048;DHT22;52089;51.362;-2.384;2022-09-27T23:52:34;9.10;93.50
65048;DHT22;52089;51.362;-2.384;2022-09-27T23:56:16;9.00;93.60
65048;DHT22;52089;51.362;-2.384;2022-09-27T23:59:58;8.90;94.20
